Time,TemperatureF,DewpointF,PressureIn,WindDirection,WindDirectionDegrees,WindSpeedMPH,WindSpeedGustMPH,Humidity,HourlyPrecipIn,Conditions,Clouds,dailyrainin,SoftwareType,DateUTC
2013-04-13 00:00:00,59.8,24.0,28.67,NNE,23,4.1,6.5,25,0.00,,,0.00,WSDL version 420,2013-04-13 04:00:00,
2013-04-13 00:02:00,59.8,23.9,28.67,NNE,23,2.7,6.5,25,0.00,,,0.00,WSDL version 420,2013-04-13 04:02:00,
2013-04-13 00:04:00,59.8,23.9,28.67,SW,225,3.6,6.5,25,0.00,,,0.00,WSDL version 420,2013-04-13 04:04:00,
2013-04-13 00:06:00,59.7,23.9,28.67,North,360,4.3,5.6,25,0.00,,,0.00,WSDL version 420,2013-04-13 04:06:00,
2013-04-13 00:10:00,59.7,23.9,28.67,WNW,300,2.6,4.3,25,0.00,,,0.00,WSDL version 420,2013-04-13 04:10:00,
2013-04-13 00:12:00,59.7,23.8,28.67,WNW,293,1.8,4.3,25,0.00,,,0.00,WSDL version 420,2013-04-13 04:12:00,
2013-04-13 00:18:00,59.5,23.7,28.67,SSW,203,2.2,4.3,25,0.00,,,0.00,WSDL version 420,2013-04-13 04:18:00,
2013-04-13 00:22:00,59.3,23.5,28.67,NNE,23,1.5,4.3,25,0.00,,,0.00,WSDL version 420,2013-04-13 04:22:00,
2013-04-13 00:24:00,59.3,23.5,28.67,SW,214,2.7,4.5,25,0.00,,,0.00,WSDL version 420,2013-04-13 04:24:00,
2013-04-13 00:26:00,59.2,23.4,28.67,NNE,30,1.2,4.5,25,0.00,,,0.00,WSDL version 420,2013-04-13 04:26:00,
2013-04-13 00:28:00,59.1,23.3,28.67,West,270,2.0,4.5,25,0.00,,,0.00,WSDL version 420,2013-04-13 04:28:00,
2013-04-13 00:30:00,59.0,23.3,28.67,North,349,2.0,4.5,25,0.00,,,0.00,WSDL version 420,2013-04-13 04:30:00,
2013-04-13 00:32:00,59.0,23.2,28.67,SSW,203,3.1,4.5,25,0.00,,,0.00,WSDL version 420,2013-04-13 04:32:00,
2013-04-13 00:34:00,59.0,23.2,28.67,SSE,150,1.9,2.5,25,0.00,,,0.00,WSDL version 420,2013-04-13 04:34:00,
2013-04-13 00:38:00,58.9,23.6,28.67,WSW,248,1.3,3.6,26,0.00,,,0.00,WSDL version 420,2013-04-13 04:38:00,
2013-04-13 00:40:00,58.9,23.9,28.67,North,360,2.7,3.6,26,0.00,,,0.00,WSDL version 420,2013-04-13 04:40:00,
2013-04-13 00:44:00,58.8,24.0,28.67,South,180,1.3,3.6,26,0.00,,,0.00,WSDL version 420,2013-04-13 04:44:00,
2013-04-13 00:46:00,58.8,24.0,28.67,SW,225,1.7,2.9,26,0.00,,,0.00,WSDL version 420,2013-04-13 04:46:00,
2013-04-13 00:48:00,58.7,24.0,28.67,NW,326,2.2,2.9,26,0.00,,,0.00,WSDL version 420,2013-04-13 04:48:00,
2013-04-13 00:52:00,58.6,23.9,28.67,NE,34,2.7,4.0,26,0.00,,,0.00,WSDL version 420,2013-04-13 04:52:00,
2013-04-13 00:58:00,58.6,23.9,28.67,SW,225,2.0,4.3,26,0.00,,,0.00,WSDL version 420,2013-04-13 04:58:00,
2013-04-13 01:04:00,58.5,23.7,28.67,NNW,338,2.0,4.3,26,0.00,,,0.00,WSDL version 420,2013-04-13 05:04:00,
2013-04-13 01:08:00,58.5,23.7,28.67,North,6,2.6,3.6,26,0.00,,,0.00,WSDL version 420,2013-04-13 05:08:00,
2013-04-13 01:14:00,58.5,23.7,28.67,NW,315,3.6,10.3,26,0.00,,,0.00,WSDL version 420,2013-04-13 05:14:00,
2013-04-13 01:18:00,58.5,23.7,28.67,SSW,203,2.0,10.3,26,0.00,,,0.00,WSDL version 420,2013-04-13 05:18:00,
2013-04-13 01:20:00,58.5,23.7,28.67,SSW,203,3.1,10.3,26,0.00,,,0.00,WSDL version 420,2013-04-13 05:20:00,
2013-04-13 01:24:00,58.5,23.7,28.67,NNE,23,4.0,5.8,26,0.00,,,0.00,WSDL version 420,2013-04-13 05:24:00,
2013-04-13 01:26:00,58.5,23.7,28.67,NNE,23,5.4,5.8,26,0.00,,,0.00,WSDL version 420,2013-04-13 05:26:00,
2013-04-13 01:30:00,58.5,23.7,28.67,NNE,23,5.0,9.6,26,0.00,,,0.00,WSDL version 420,2013-04-13 05:30:00,
2013-04-13 01:32:00,58.5,23.7,28.67,North,8,3.8,9.6,26,0.00,,,0.00,WSDL version 420,2013-04-13 05:32:00,
2013-04-13 01:34:00,58.4,23.7,28.67,NW,326,3.6,9.6,26,0.00,,,0.00,WSDL version 420,2013-04-13 05:34:00,
2013-04-13 01:38:00,58.4,23.7,28.67,NNE,23,3.1,7.8,26,0.00,,,0.00,WSDL version 420,2013-04-13 05:38:00,
2013-04-13 01:40:00,58.5,23.7,28.67,NW,326,3.7,7.8,26,0.00,,,0.00,WSDL version 420,2013-04-13 05:40:00,
2013-04-13 01:44:00,58.4,23.7,28.67,North,-999,-999.0,-999.0,26,0.00,,,0.00,WSDL version 420,2013-04-13 05:44:00,
2013-04-13 01:48:00,58.1,23.4,28.67,NE,45,3.4,4.5,26,0.00,,,0.00,WSDL version 420,2013-04-13 05:48:00,
2013-04-13 01:50:00,58.1,23.4,28.67,South,180,2.7,3.6,26,0.00,,,0.00,WSDL version 420,2013-04-13 05:50:00,
2013-04-13 01:54:00,58.0,23.4,28.67,SW,236,1.3,4.9,26,0.00,,,0.00,WSDL version 420,2013-04-13 05:54:00,
2013-04-13 02:00:00,57.9,23.3,28.67,NE,41,2.6,6.3,26,0.00,,,0.00,WSDL version 420,2013-04-13 06:00:00,
2013-04-13 02:02:00,57.9,23.2,28.67,WSW,248,2.2,6.3,26,0.00,,,0.00,WSDL version 420,2013-04-13 06:02:00,
2013-04-13 02:08:00,57.7,23.1,28.67,NNE,30,3.1,4.5,26,0.00,,,0.00,WSDL version 420,2013-04-13 06:08:00,
2013-04-13 02:10:00,57.7,23.1,28.67,East,90,2.2,4.5,26,0.00,,,0.00,WSDL version 420,2013-04-13 06:10:00,
2013-04-13 02:12:00,57.7,23.1,28.67,NNE,23,2.1,4.5,26,0.00,,,0.00,WSDL version 420,2013-04-13 06:12:00,
2013-04-13 02:14:00,57.7,23.0,28.67,SW,225,2.5,4.5,26,0.00,,,0.00,WSDL version 420,2013-04-13 06:14:00,
2013-04-13 02:16:00,57.6,23.0,28.67,NW,315,2.7,3.8,26,0.00,,,0.00,WSDL version 420,2013-04-13 06:16:00,
2013-04-13 02:18:00,57.5,23.1,28.67,NNW,338,0.7,3.8,27,0.00,,,0.00,WSDL version 420,2013-04-13 06:18:00,
2013-04-13 02:20:00,57.5,23.2,28.67,NW,315,2.9,3.8,26,0.00,,,0.00,WSDL version 420,2013-04-13 06:20:00,
2013-04-13 02:26:00,57.4,23.4,28.67,NW,326,2.2,6.0,27,0.00,,,0.00,WSDL version 420,2013-04-13 06:26:00,
2013-04-13 02:32:00,57.3,23.6,28.67,NNE,23,2.7,5.8,27,0.00,,,0.00,WSDL version 420,2013-04-13 06:32:00,
2013-04-13 02:33:00,57.4,23.7,28.67,SW,236,4.5,5.8,27,0.00,,,0.00,WSDL version 420,2013-04-13 06:33:00,
2013-04-13 02:39:00,57.4,23.7,28.67,WNW,293,3.4,6.5,27,0.00,,,0.00,WSDL version 420,2013-04-13 06:39:00,
2013-04-13 02:45:00,57.4,23.7,28.67,SSE,150,2.5,8.5,27,0.00,,,0.00,WSDL version 420,2013-04-13 06:45:00,
2013-04-13 02:51:00,57.3,23.6,28.67,NW,308,1.7,8.5,27,0.00,,,0.00,WSDL version 420,2013-04-13 06:51:00,
2013-04-13 02:53:00,57.3,23.6,28.67,North,0,0.0,8.5,27,0.00,,,0.00,WSDL version 420,2013-04-13 06:53:00,
2013-04-13 02:59:00,57.2,23.6,28.67,WSW,240,2.2,4.9,27,0.00,,,0.00,WSDL version 420,2013-04-13 06:59:00,
2013-04-13 03:07:00,57.2,23.5,28.67,SSE,150,1.0,3.4,27,0.00,,,0.00,WSDL version 420,2013-04-13 07:07:00,
2013-04-13 03:11:00,57.1,23.9,28.67,North,4,3.4,5.4,28,0.00,,,0.00,WSDL version 420,2013-04-13 07:11:00,
2013-04-13 03:13:00,57.0,24.3,28.67,ENE,73,2.3,5.4,28,0.00,,,0.00,WSDL version 420,2013-04-13 07:13:00,
2013-04-13 03:19:00,57.0,24.3,28.67,NNE,23,2.8,5.4,28,0.00,,,0.00,WSDL version 420,2013-04-13 07:19:00,
2013-04-13 03:25:00,57.0,24.3,28.67,SSW,210,2.4,3.4,28,0.00,,,0.00,WSDL version 420,2013-04-13 07:25:00,
2013-04-13 03:31:00,56.8,24.1,28.67,NNE,23,3.0,5.6,28,0.00,,,0.00,WSDL version 420,2013-04-13 07:31:00,
2013-04-13 03:37:00,57.0,24.3,28.67,South,180,2.7,5.6,28,0.00,,,0.00,WSDL version 420,2013-04-13 07:37:00,
2013-04-13 03:43:00,56.8,24.1,28.67,North,360,2.0,5.4,28,0.00,,,0.00,WSDL version 420,2013-04-13 07:43:00,
2013-04-13 03:45:00,56.8,24.1,28.67,North,-999,-999.0,-999.0,28,0.00,,,0.00,WSDL version 420,2013-04-13 07:45:00,
2013-04-13 03:51:00,56.9,24.6,28.67,SE,128,3.4,5.6,28,0.00,,,0.00,WSDL version 420,2013-04-13 07:51:00,
2013-04-13 03:57:00,56.8,24.7,28.67,WNW,297,2.7,7.6,29,0.00,,,0.00,WSDL version 420,2013-04-13 07:57:00,
2013-04-13 03:59:00,56.8,24.6,28.67,NNE,30,2.9,7.6,29,0.00,,,0.00,WSDL version 420,2013-04-13 07:59:00,
2013-04-13 04:05:00,56.8,24.9,28.67,North,-999,-999.0,-999.0,29,0.00,,,0.00,WSDL version 420,2013-04-13 08:05:00,
2013-04-13 04:11:00,56.8,24.9,28.67,North,360,2.2,3.1,29,0.00,,,0.00,WSDL version 420,2013-04-13 08:11:00,
2013-04-13 04:22:00,56.8,24.9,28.67,North,-999,-999.0,-999.0,29,0.00,,,0.00,WSDL version 420,2013-04-13 08:22:00,
2013-04-13 04:28:00,56.8,24.9,28.67,South,191,1.5,4.7,29,0.00,,,0.00,WSDL version 420,2013-04-13 08:28:00,
2013-04-13 04:34:00,56.7,24.8,28.67,SW,225,3.1,4.9,29,0.00,,,0.00,WSDL version 420,2013-04-13 08:34:00,
2013-04-13 04:40:00,56.7,24.9,28.70,ENE,73,1.8,4.9,30,0.00,,,0.00,WSDL version 420,2013-04-13 08:40:00,
2013-04-13 04:44:00,56.6,25.0,28.70,NNE,15,3.6,3.6,29,0.00,,,0.00,WSDL version 420,2013-04-13 08:44:00,
2013-04-13 04:50:00,56.6,25.2,28.70,SSW,203,1.1,3.6,30,0.00,,,0.00,WSDL version 420,2013-04-13 08:50:00,
2013-04-13 04:52:00,56.5,25.5,28.67,South,188,1.9,4.9,30,0.00,,,0.00,WSDL version 420,2013-04-13 08:52:00,
2013-04-13 04:56:00,56.4,25.4,28.67,WNW,293,0.0,4.9,30,0.00,,,0.00,WSDL version 420,2013-04-13 08:56:00,
2013-04-13 05:04:00,56.2,25.2,28.67,NE,45,1.3,2.2,30,0.00,,,0.00,WSDL version 420,2013-04-13 09:04:00,
2013-04-13 05:10:00,56.1,25.3,28.67,SSE,158,1.0,2.7,31,0.00,,,0.00,WSDL version 420,2013-04-13 09:10:00,
2013-04-13 05:16:00,55.9,25.7,28.67,SE,146,0.9,2.7,31,0.00,,,0.00,WSDL version 420,2013-04-13 09:16:00,
2013-04-13 05:22:00,55.9,25.7,28.70,North,-999,-999.0,-999.0,31,0.00,,,0.00,WSDL version 420,2013-04-13 09:22:00,
2013-04-13 05:27:00,55.9,26.0,28.70,SSW,203,0.4,1.1,32,0.00,,,0.00,WSDL version 420,2013-04-13 09:27:00,
2013-04-13 05:29:00,55.9,26.2,28.70,North,-999,-999.0,-999.0,32,0.00,,,0.00,WSDL version 420,2013-04-13 09:29:00,
2013-04-13 05:35:00,55.6,26.3,28.70,WSW,248,2.0,2.0,32,0.00,,,0.00,WSDL version 420,2013-04-13 09:35:00,
2013-04-13 05:41:00,55.7,26.5,28.70,West,281,2.7,3.6,33,0.00,,,0.00,WSDL version 420,2013-04-13 09:41:00,
2013-04-13 05:43:00,55.8,26.6,28.70,West,270,1.6,3.6,32,0.00,,,0.00,WSDL version 420,2013-04-13 09:43:00,
2013-04-13 05:49:00,55.7,26.6,28.70,SW,233,2.2,6.0,33,0.00,,,0.00,WSDL version 420,2013-04-13 09:49:00,
2013-04-13 05:51:00,55.8,27.0,28.70,SE,124,2.9,6.0,33,0.00,,,0.00,WSDL version 420,2013-04-13 09:51:00,
2013-04-13 05:55:00,55.7,27.5,28.70,South,173,2.6,6.0,34,0.00,,,0.00,WSDL version 420,2013-04-13 09:55:00,
2013-04-13 05:57:00,55.5,27.6,28.70,South,180,4.0,6.0,34,0.00,,,0.00,WSDL version 420,2013-04-13 09:57:00,
2013-04-13 06:03:00,55.1,28.0,28.70,SW,225,2.5,5.4,35,0.00,,,0.00,WSDL version 420,2013-04-13 10:03:00,
2013-04-13 06:07:00,55.1,28.0,28.70,SW,214,1.5,5.4,35,0.00,,,0.00,WSDL version 420,2013-04-13 10:07:00,
2013-04-13 06:11:00,55.2,28.0,28.70,West,281,2.1,6.0,35,0.00,,,0.00,WSDL version 420,2013-04-13 10:11:00,
2013-04-13 06:13:00,55.2,28.0,28.70,South,180,1.6,6.0,35,0.00,,,0.00,WSDL version 420,2013-04-13 10:13:00,
2013-04-13 06:21:00,55.3,28.1,28.70,South,191,2.5,3.4,35,0.00,,,0.00,WSDL version 420,2013-04-13 10:21:00,
2013-04-13 06:28:00,55.0,28.5,28.70,NE,45,2.5,3.4,36,0.00,,,0.00,WSDL version 420,2013-04-13 10:28:00,
2013-04-13 06:32:00,54.8,28.3,28.70,SW,225,1.2,2.7,36,0.00,,,0.00,WSDL version 420,2013-04-13 10:32:00,
2013-04-13 06:34:00,54.7,28.2,28.70,North,-999,-999.0,-999.0,36,0.00,,,0.00,WSDL version 420,2013-04-13 10:34:00,
2013-04-13 06:40:00,54.4,28.0,28.70,SSW,199,1.7,3.1,36,0.00,,,0.00,WSDL version 420,2013-04-13 10:40:00,
2013-04-13 06:42:00,54.3,27.9,28.70,South,188,1.9,3.1,36,0.00,,,0.00,WSDL version 420,2013-04-13 10:42:00,
2013-04-13 06:46:00,54.1,27.8,28.70,SW,225,1.9,3.1,36,0.00,,,0.00,WSDL version 420,2013-04-13 10:46:00,
2013-04-13 06:51:00,54.0,27.7,28.70,South,169,2.0,2.9,36,0.00,,,0.00,WSDL version 420,2013-04-13 10:51:00,
2013-04-13 06:56:00,54.0,27.7,28.70,SSW,203,1.8,2.7,37,0.00,,,0.00,WSDL version 420,2013-04-13 10:56:00,
2013-04-13 07:02:00,53.8,28.1,28.70,South,180,2.2,3.1,37,0.00,,,0.00,WSDL version 420,2013-04-13 11:02:00,
2013-04-13 07:04:00,53.8,28.1,28.70,SSW,194,1.3,3.1,37,0.00,,,0.00,WSDL version 420,2013-04-13 11:04:00,
2013-04-13 07:08:00,53.6,28.0,28.73,SW,236,1.3,3.1,37,0.00,,,0.00,WSDL version 420,2013-04-13 11:08:00,
2013-04-13 07:10:00,53.6,28.0,28.73,South,191,1.6,2.9,37,0.00,,,0.00,WSDL version 420,2013-04-13 11:10:00,
2013-04-13 07:16:00,53.5,28.3,28.73,South,191,1.2,2.5,38,0.00,,,0.00,WSDL version 420,2013-04-13 11:16:00,
2013-04-13 07:18:00,53.4,28.5,28.73,South,180,0.8,2.5,38,0.00,,,0.00,WSDL version 420,2013-04-13 11:18:00,
2013-04-13 07:22:00,53.4,28.2,28.73,SSE,158,1.9,2.5,38,0.00,,,0.00,WSDL version 420,2013-04-13 11:22:00,
2013-04-13 07:26:00,53.5,28.0,28.73,South,180,1.2,2.5,37,0.00,,,0.00,WSDL version 420,2013-04-13 11:26:00,
2013-04-13 07:29:00,53.6,28.0,28.73,North,-999,-999.0,-999.0,37,0.00,,,0.00,WSDL version 420,2013-04-13 11:29:00,
2013-04-13 07:31:00,53.7,28.0,28.73,SSW,203,2.7,2.7,37,0.00,,,0.00,WSDL version 420,2013-04-13 11:31:00,
2013-04-13 07:35:00,53.8,28.1,28.73,South,188,1.4,2.7,37,0.00,,,0.00,WSDL version 420,2013-04-13 11:35:00,
2013-04-13 07:39:00,53.8,28.1,28.73,North,0,0.0,2.7,37,0.00,,,0.00,WSDL version 420,2013-04-13 11:39:00,
2013-04-13 07:42:00,53.8,28.2,28.73,South,173,1.9,2.9,38,0.00,,,0.00,WSDL version 420,2013-04-13 11:42:00,
2013-04-13 07:45:00,53.7,28.6,28.73,SSE,150,1.9,2.9,38,0.00,,,0.00,WSDL version 420,2013-04-13 11:45:00,
2013-04-13 07:53:00,53.8,28.8,28.73,SSW,203,2.5,4.7,38,0.00,,,0.00,WSDL version 420,2013-04-13 11:53:00,
2013-04-13 07:55:00,54.0,28.9,28.73,SW,225,1.3,4.7,38,0.00,,,0.00,WSDL version 420,2013-04-13 11:55:00,
2013-04-13 08:01:00,54.4,29.3,28.73,SSW,197,1.8,3.4,37,0.00,,,0.00,WSDL version 420,2013-04-13 12:01:00,
2013-04-13 08:07:00,54.9,29.2,28.76,NW,315,2.5,3.4,37,0.00,,,0.00,WSDL version 420,2013-04-13 12:07:00,
2013-04-13 08:09:00,55.2,29.2,28.76,North,6,2.5,4.7,36,0.00,,,0.00,WSDL version 420,2013-04-13 12:09:00,
2013-04-13 08:15:00,55.9,29.3,28.76,NE,38,1.1,4.7,36,0.00,,,0.00,WSDL version 420,2013-04-13 12:15:00,
2013-04-13 08:19:00,56.2,29.6,28.76,North,-999,-999.0,-999.0,36,0.00,,,0.00,WSDL version 420,2013-04-13 12:19:00,
2013-04-13 08:25:00,56.4,29.2,28.76,SE,124,2.3,4.3,35,0.00,,,0.00,WSDL version 420,2013-04-13 12:25:00,
2013-04-13 08:27:00,56.5,29.3,28.76,SE,143,1.0,4.3,36,0.00,,,0.00,WSDL version 420,2013-04-13 12:27:00,
2013-04-13 08:31:00,56.7,30.0,28.76,SSW,203,1.1,4.3,36,0.00,,,0.00,WSDL version 420,2013-04-13 12:31:00,
2013-04-13 08:37:00,56.7,30.0,28.76,North,-999,-999.0,-999.0,35,0.00,,,0.00,WSDL version 420,2013-04-13 12:37:00,
2013-04-13 08:43:00,57.1,29.7,28.76,NE,56,2.8,4.9,35,0.00,,,0.00,WSDL version 420,2013-04-13 12:43:00,
2013-04-13 08:47:00,57.3,29.9,28.76,West,259,1.8,4.9,35,0.00,,,0.00,WSDL version 420,2013-04-13 12:47:00,
2013-04-13 08:53:00,57.6,30.2,28.79,SSW,203,2.2,2.2,35,0.00,,,0.00,WSDL version 420,2013-04-13 12:53:00,
2013-04-13 08:57:00,57.8,30.4,28.79,NNW,332,3.1,6.3,35,0.00,,,0.00,WSDL version 420,2013-04-13 12:57:00,
2013-04-13 09:02:00,58.1,30.6,28.79,SSW,203,0.7,6.3,35,0.00,,,0.00,WSDL version 420,2013-04-13 13:02:00,
2013-04-13 09:04:00,58.2,30.7,28.79,NNE,23,1.5,6.3,35,0.00,,,0.00,WSDL version 420,2013-04-13 13:04:00,
2013-04-13 09:08:00,58.4,30.3,28.79,NE,53,4.6,8.1,34,0.00,,,0.00,WSDL version 420,2013-04-13 13:08:00,
2013-04-13 09:10:00,58.5,29.9,28.79,WNW,293,2.6,8.1,33,0.00,,,0.00,WSDL version 420,2013-04-13 13:10:00,
2013-04-13 09:16:00,58.6,29.2,28.79,NNE,23,3.6,8.1,31,0.00,,,0.00,WSDL version 420,2013-04-13 13:16:00,
2013-04-13 09:18:00,58.7,29.1,28.79,NNE,23,3.4,6.3,32,0.00,,,0.00,WSDL version 420,2013-04-13 13:18:00,
2013-04-13 09:22:00,58.9,29.3,28.79,NE,38,2.8,6.0,32,0.00,,,0.00,WSDL version 420,2013-04-13 13:22:00,
2013-04-13 09:28:00,59.1,29.1,28.79,North,0,0.0,6.5,32,0.00,,,0.00,WSDL version 420,2013-04-13 13:28:00,
2013-04-13 09:30:00,59.2,29.1,28.79,NNE,15,3.8,6.5,31,0.00,,,0.00,WSDL version 420,2013-04-13 13:30:00,
2013-04-13 09:36:00,59.3,28.3,28.79,North,-999,-999.0,-999.0,31,0.00,,,0.00,WSDL version 420,2013-04-13 13:36:00,
2013-04-13 09:42:00,59.4,28.0,28.79,North,354,2.6,6.0,30,0.00,,,0.00,WSDL version 420,2013-04-13 13:42:00,
2013-04-13 09:44:00,59.6,28.3,28.79,NE,45,3.6,6.0,31,0.00,,,0.00,WSDL version 420,2013-04-13 13:44:00,
2013-04-13 09:48:00,59.9,29.1,28.79,WNW,293,2.9,6.0,31,0.00,,,0.00,WSDL version 420,2013-04-13 13:48:00,
2013-04-13 09:52:00,60.4,29.2,28.79,North,8,4.5,7.4,30,0.00,,,0.00,WSDL version 420,2013-04-13 13:52:00,
2013-04-13 09:56:00,60.5,29.0,28.79,WNW,293,1.6,7.4,30,0.00,,,0.00,WSDL version 420,2013-04-13 13:56:00,
2013-04-13 09:59:00,60.8,29.2,28.79,North,360,0.0,7.4,30,0.00,,,0.00,WSDL version 420,2013-04-13 13:59:00,
2013-04-13 10:02:00,61.1,28.7,28.79,North,0,0.0,4.3,29,0.00,,,0.00,WSDL version 420,2013-04-13 14:02:00,
2013-04-13 10:04:00,61.3,29.1,28.79,South,180,2.0,4.3,30,0.00,,,0.00,WSDL version 420,2013-04-13 14:04:00,
2013-04-13 10:08:00,61.9,30.2,28.79,SW,225,3.6,6.9,30,0.00,,,0.00,WSDL version 420,2013-04-13 14:08:00,
2013-04-13 10:10:00,62.2,30.4,28.79,SSE,158,2.9,6.9,30,0.00,,,0.00,WSDL version 420,2013-04-13 14:10:00,
2013-04-13 10:14:00,62.8,30.4,28.79,WNW,293,2.3,6.9,29,0.00,,,0.00,WSDL version 420,2013-04-13 14:14:00,
2013-04-13 10:20:00,63.2,30.0,28.79,SW,225,2.5,4.0,28,0.00,,,0.00,WSDL version 420,2013-04-13 14:20:00,
2013-04-13 10:22:00,63.4,29.7,28.79,North,-999,-999.0,-999.0,28,0.00,,,0.00,WSDL version 420,2013-04-13 14:22:00,
2013-04-13 10:28:00,63.8,30.1,28.79,South,191,3.4,5.8,28,0.00,,,0.00,WSDL version 420,2013-04-13 14:28:00,
2013-04-13 10:30:00,63.9,30.2,28.79,SSE,158,1.6,5.8,28,0.00,,,0.00,WSDL version 420,2013-04-13 14:30:00,
2013-04-13 10:34:00,64.4,30.2,28.79,North,360,3.6,5.8,27,0.00,,,0.00,WSDL version 420,2013-04-13 14:34:00,
2013-04-13 10:36:00,64.5,29.8,28.79,South,191,3.0,5.6,27,0.00,,,0.00,WSDL version 420,2013-04-13 14:36:00,
2013-04-13 10:44:00,65.5,30.6,28.79,NW,304,2.8,3.8,27,0.00,,,0.00,WSDL version 420,2013-04-13 14:44:00,
2013-04-13 10:48:00,65.8,30.2,28.79,South,191,2.9,5.4,26,0.00,,,0.00,WSDL version 420,2013-04-13 14:48:00,
2013-04-13 10:57:00,65.9,29.3,28.82,SSW,210,3.2,3.6,26,0.00,,,0.00,WSDL version 420,2013-04-13 14:57:00,
2013-04-13 11:03:00,66.1,29.2,28.82,NNE,15,2.2,6.5,25,0.00,,,0.00,WSDL version 420,2013-04-13 15:03:00,
2013-04-13 11:07:00,65.9,29.1,28.82,North,-999,-999.0,-999.0,25,0.00,,,0.00,WSDL version 420,2013-04-13 15:07:00,
2013-04-13 11:09:00,66.0,29.2,28.82,NNW,338,1.1,6.5,25,0.00,,,0.00,WSDL version 420,2013-04-13 15:09:00,
2013-04-13 11:15:00,66.3,29.3,28.82,NW,326,4.4,5.6,25,0.00,,,0.00,WSDL version 420,2013-04-13 15:15:00,
2013-04-13 11:21:00,66.3,28.7,28.82,SW,225,3.4,5.6,24,0.00,,,0.00,WSDL version 420,2013-04-13 15:21:00,
2013-04-13 11:23:00,66.3,28.5,28.82,West,270,2.2,4.9,24,0.00,,,0.00,WSDL version 420,2013-04-13 15:23:00,
2013-04-13 11:27:00,66.6,29.0,28.82,North,-999,-999.0,-999.0,25,0.00,,,0.00,WSDL version 420,2013-04-13 15:27:00,
2013-04-13 11:33:00,67.3,30.1,28.82,SSW,203,2.5,4.9,25,0.00,,,0.00,WSDL version 420,2013-04-13 15:33:00,
2013-04-13 11:37:00,67.5,29.9,28.82,North,-999,-999.0,-999.0,24,0.00,,,0.00,WSDL version 420,2013-04-13 15:37:00,
2013-04-13 11:39:00,67.5,29.5,28.82,North,-999,-999.0,-999.0,24,0.00,,,0.00,WSDL version 420,2013-04-13 15:39:00,
2013-04-13 11:43:00,67.8,29.9,28.82,North,360,3.6,4.3,24,0.00,,,0.00,WSDL version 420,2013-04-13 15:43:00,
2013-04-13 11:49:00,68.1,30.0,28.82,SW,225,2.5,4.3,24,0.00,,,0.00,WSDL version 420,2013-04-13 15:49:00,
2013-04-13 11:55:00,68.5,30.3,28.82,North,360,1.3,3.4,24,0.00,,,0.00,WSDL version 420,2013-04-13 15:55:00,
2013-04-13 11:57:00,68.6,30.4,28.82,NW,315,2.2,3.4,24,0.00,,,0.00,WSDL version 420,2013-04-13 15:57:00,
2013-04-13 12:03:00,69.0,30.7,28.82,North,0,0.0,2.5,24,0.00,,,0.00,WSDL version 420,2013-04-13 16:03:00,
2013-04-13 12:11:00,69.8,31.0,28.82,North,0,0.0,2.7,24,0.00,,,0.00,WSDL version 420,2013-04-13 16:11:00,
2013-04-13 12:16:00,70.1,30.6,28.82,SSW,203,2.5,2.5,23,0.00,,,0.00,WSDL version 420,2013-04-13 16:16:00,
2013-04-13 12:20:00,70.5,31.0,28.82,North,11,3.2,5.6,23,0.00,,,0.00,WSDL version 420,2013-04-13 16:20:00,
2013-04-13 12:24:00,70.7,31.1,28.82,NW,315,2.7,5.6,23,0.00,,,0.00,WSDL version 420,2013-04-13 16:24:00,
2013-04-13 12:26:00,71.0,31.4,28.82,North,360,2.5,5.6,23,0.00,,,0.00,WSDL version 420,2013-04-13 16:26:00,
2013-04-13 12:30:00,71.2,31.5,28.82,North,360,2.7,2.9,23,0.00,,,0.00,WSDL version 420,2013-04-13 16:30:00,
2013-04-13 12:36:00,71.3,31.4,28.79,North,-999,-999.0,-999.0,23,0.00,,,0.00,WSDL version 420,2013-04-13 16:36:00,
2013-04-13 12:39:00,71.5,31.2,28.79,North,360,2.0,2.9,22,0.00,,,0.00,WSDL version 420,2013-04-13 16:39:00,
2013-04-13 12:44:00,72.1,31.2,28.79,North,0,0.0,2.9,22,0.00,,,0.00,WSDL version 420,2013-04-13 16:44:00,
2013-04-13 12:50:00,72.5,31.5,28.79,North,360,2.0,3.6,22,0.00,,,0.00,WSDL version 420,2013-04-13 16:50:00,
2013-04-13 12:58:00,73.0,31.9,28.79,North,360,2.9,4.9,22,0.00,,,0.00,WSDL version 420,2013-04-13 16:58:00,
2013-04-13 13:00:00,72.9,31.8,28.79,North,-999,-999.0,-999.0,22,0.00,,,0.00,WSDL version 420,2013-04-13 17:00:00,
2013-04-13 13:04:00,72.9,31.9,28.79,NNE,23,3.7,4.9,22,0.00,,,0.00,WSDL version 420,2013-04-13 17:04:00,
2013-04-13 13:10:00,73.4,31.4,28.79,NNE,30,2.8,3.8,21,0.00,,,0.00,WSDL version 420,2013-04-13 17:10:00,
2013-04-13 13:12:00,73.6,31.3,28.79,North,360,3.4,4.3,21,0.00,,,0.00,WSDL version 420,2013-04-13 17:12:00,
2013-04-13 13:18:00,74.2,31.8,28.79,North,11,3.6,4.7,21,0.00,,,0.00,WSDL version 420,2013-04-13 17:18:00,
2013-04-13 13:20:00,74.4,32.0,28.79,NW,315,2.5,4.7,21,0.00,,,0.00,WSDL version 420,2013-04-13 17:20:00,
2013-04-13 13:24:00,74.8,32.3,28.82,North,-999,-999.0,-999.0,21,0.00,,,0.00,WSDL version 420,2013-04-13 17:24:00,
2013-04-13 13:30:00,75.0,32.3,28.82,North,-999,-999.0,-999.0,20,0.00,,,0.00,WSDL version 420,2013-04-13 17:30:00,
2013-04-13 13:36:00,75.5,31.7,28.82,NE,45,2.2,4.0,20,0.00,,,0.00,WSDL version 420,2013-04-13 17:36:00,
2013-04-13 13:42:00,76.7,32.9,28.79,SW,225,2.2,4.3,20,0.00,,,0.00,WSDL version 420,2013-04-13 17:42:00,
2013-04-13 13:47:00,78.4,34.0,28.79,North,-999,-999.0,-999.0,20,0.00,,,0.00,WSDL version 420,2013-04-13 17:47:00,
2013-04-13 13:53:00,79.6,35.1,28.79,North,-999,-999.0,-999.0,20,0.00,,,0.00,WSDL version 420,2013-04-13 17:53:00,
2013-04-13 13:55:00,79.7,35.1,28.79,North,-999,-999.0,-999.0,20,0.00,,,0.00,WSDL version 420,2013-04-13 17:55:00,
2013-04-13 13:59:00,79.5,34.9,28.79,West,270,0.9,2.7,20,0.00,,,0.00,WSDL version 420,2013-04-13 17:59:00,
2013-04-13 14:03:00,79.8,34.5,28.79,NW,315,1.2,2.7,20,0.00,,,0.00,WSDL version 420,2013-04-13 18:03:00,
2013-04-13 14:07:00,79.4,32.9,28.79,North,-999,-999.0,-999.0,17,0.00,,,0.00,WSDL version 420,2013-04-13 18:07:00,
2013-04-13 14:09:00,78.8,30.7,28.79,North,-999,-999.0,-999.0,18,0.00,,,0.00,WSDL version 420,2013-04-13 18:09:00,
2013-04-13 14:13:00,77.8,31.0,28.79,North,360,1.6,2.5,18,0.00,,,0.00,WSDL version 420,2013-04-13 18:13:00,
2013-04-13 14:15:00,77.8,30.9,28.79,North,0,0.0,2.5,18,0.00,,,0.00,WSDL version 420,2013-04-13 18:15:00,
2013-04-13 14:23:00,78.8,31.0,28.79,North,-999,-999.0,-999.0,18,0.00,,,0.00,WSDL version 420,2013-04-13 18:23:00,
2013-04-13 14:27:00,78.2,31.3,28.79,NE,45,3.8,3.8,18,0.00,,,0.00,WSDL version 420,2013-04-13 18:27:00,
2013-04-13 14:29:00,78.3,31.1,28.79,North,-999,-999.0,-999.0,17,0.00,,,0.00,WSDL version 420,2013-04-13 18:29:00,
2013-04-13 14:31:00,79.1,31.7,28.79,South,180,2.5,2.7,17,0.00,,,0.00,WSDL version 420,2013-04-13 18:31:00,
2013-04-13 14:37:00,81.0,33.0,28.79,WSW,248,3.1,3.6,17,0.00,,,0.00,WSDL version 420,2013-04-13 18:37:00,
2013-04-13 14:39:00,81.0,32.6,28.79,North,-999,-999.0,-999.0,17,0.00,,,0.00,WSDL version 420,2013-04-13 18:39:00,
2013-04-13 14:42:00,81.2,32.3,28.79,East,101,3.1,3.1,17,0.00,,,0.00,WSDL version 420,2013-04-13 18:42:00,
2013-04-13 14:48:00,80.4,31.1,28.79,North,-999,-999.0,-999.0,17,0.00,,,0.00,WSDL version 420,2013-04-13 18:48:00,
2013-04-13 14:50:00,79.8,31.1,28.79,North,-999,-999.0,-999.0,17,0.00,,,0.00,WSDL version 420,2013-04-13 18:50:00,
2013-04-13 14:54:00,80.1,30.9,28.79,North,-999,-999.0,-999.0,15,0.00,,,0.00,WSDL version 420,2013-04-13 18:54:00,
2013-04-13 14:57:00,80.1,30.3,28.79,NNE,23,4.6,6.0,15,0.00,,,0.00,WSDL version 420,2013-04-13 18:57:00,
2013-04-13 14:58:00,79.6,28.6,28.79,NE,45,2.7,6.0,15,0.00,,,0.00,WSDL version 420,2013-04-13 18:58:00,
2013-04-13 15:00:00,79.3,27.7,28.79,NE,45,3.6,6.0,15,0.00,,,0.00,WSDL version 420,2013-04-13 19:00:00,
2013-04-13 15:07:00,78.9,28.0,28.79,North,360,2.7,5.8,17,0.00,,,0.00,WSDL version 420,2013-04-13 19:07:00,
2013-04-13 15:08:00,79.2,28.6,28.79,North,360,3.1,5.8,15,0.00,,,0.00,WSDL version 420,2013-04-13 19:08:00,
2013-04-13 15:10:00,79.4,28.8,28.79,North,-999,-999.0,-999.0,15,0.00,,,0.00,WSDL version 420,2013-04-13 19:10:00,
2013-04-13 15:14:00,79.1,27.5,28.79,North,-999,-999.0,-999.0,15,0.00,,,0.00,WSDL version 420,2013-04-13 19:14:00,
2013-04-13 15:18:00,79.1,27.5,28.79,North,360,2.5,3.4,15,0.00,,,0.00,WSDL version 420,2013-04-13 19:18:00,
2013-04-13 15:20:00,79.6,27.9,28.79,North,-999,-999.0,-999.0,15,0.00,,,0.00,WSDL version 420,2013-04-13 19:20:00,
2013-04-13 15:22:00,80.0,27.9,28.79,East,90,1.6,2.5,14,0.00,,,0.00,WSDL version 420,2013-04-13 19:22:00,
2013-04-13 15:27:00,80.5,28.1,28.79,North,-999,-999.0,-999.0,14,0.00,,,0.00,WSDL version 420,2013-04-13 19:27:00,
2013-04-13 15:28:00,80.5,28.0,28.79,NNW,338,1.5,3.4,15,0.00,,,0.00,WSDL version 420,2013-04-13 19:28:00,
2013-04-13 15:30:00,80.5,28.0,28.79,North,360,2.0,3.4,15,0.00,,,0.00,WSDL version 420,2013-04-13 19:30:00,
2013-04-13 15:34:00,79.9,28.1,28.79,NE,45,4.7,6.3,15,0.00,,,0.00,WSDL version 420,2013-04-13 19:34:00,
2013-04-13 15:38:00,78.9,27.4,28.79,North,-999,-999.0,-999.0,15,0.00,,,0.00,WSDL version 420,2013-04-13 19:38:00,
2013-04-13 15:42:00,79.6,27.9,28.79,WSW,255,0.7,6.5,15,0.00,,,0.00,WSDL version 420,2013-04-13 19:42:00,
2013-04-13 15:47:00,80.5,27.6,28.79,West,281,2.2,3.1,14,0.00,,,0.00,WSDL version 420,2013-04-13 19:47:00,
2013-04-13 15:48:00,80.8,27.2,28.79,South,180,2.5,3.1,14,0.00,,,0.00,WSDL version 420,2013-04-13 19:48:00,
2013-04-13 15:54:00,81.9,28.1,28.82,NW,315,0.0,3.1,14,0.00,,,0.00,WSDL version 420,2013-04-13 19:54:00,
2013-04-13 15:57:00,82.0,28.2,28.82,NNW,338,0.9,3.1,14,0.00,,,0.00,WSDL version 420,2013-04-13 19:57:00,
2013-04-13 16:02:00,81.8,28.0,28.82,North,-999,-999.0,-999.0,14,0.00,,,0.00,WSDL version 420,2013-04-13 20:02:00,
2013-04-13 16:04:00,82.0,28.1,28.82,SW,233,1.7,3.8,14,0.00,,,0.00,WSDL version 420,2013-04-13 20:04:00,
2013-04-13 16:10:00,82.2,28.3,28.82,SSW,203,2.0,2.7,14,0.00,,,0.00,WSDL version 420,2013-04-13 20:10:00,
2013-04-13 16:12:00,82.2,28.3,28.82,South,191,2.0,2.7,14,0.00,,,0.00,WSDL version 420,2013-04-13 20:12:00,
2013-04-13 16:16:00,82.4,28.4,28.82,SSW,203,2.0,3.8,14,0.00,,,0.00,WSDL version 420,2013-04-13 20:16:00,
2013-04-13 16:18:00,82.3,28.4,28.82,North,0,0.0,3.8,14,0.00,,,0.00,WSDL version 420,2013-04-13 20:18:00,
2013-04-13 16:20:00,82.1,28.3,28.82,NW,315,0.0,3.8,14,0.00,,,0.00,WSDL version 420,2013-04-13 20:20:00,
2013-04-13 16:27:00,80.9,27.5,28.79,NNE,15,2.8,4.0,15,0.00,,,0.00,WSDL version 420,2013-04-13 20:27:00,
2013-04-13 16:28:00,80.2,27.6,28.79,NE,45,2.2,4.0,15,0.00,,,0.00,WSDL version 420,2013-04-13 20:28:00,
2013-04-13 16:32:00,79.7,28.0,28.79,North,-999,-999.0,-999.0,15,0.00,,,0.00,WSDL version 420,2013-04-13 20:32:00,
2013-04-13 16:34:00,79.7,28.0,28.79,North,-999,-999.0,-999.0,15,0.00,,,0.00,WSDL version 420,2013-04-13 20:34:00,
2013-04-13 16:36:00,79.5,27.9,28.79,NNE,23,2.5,2.7,15,0.00,,,0.00,WSDL version 420,2013-04-13 20:36:00,
2013-04-13 16:42:00,79.0,27.4,28.79,North,0,0.0,3.4,15,0.00,,,0.00,WSDL version 420,2013-04-13 20:42:00,
2013-04-13 16:44:00,79.1,27.6,28.79,SE,135,1.3,3.4,15,0.00,,,0.00,WSDL version 420,2013-04-13 20:44:00,
2013-04-13 16:48:00,79.0,27.5,28.79,SSW,203,0.0,2.7,15,0.00,,,0.00,WSDL version 420,2013-04-13 20:48:00,
2013-04-13 16:50:00,79.0,27.4,28.79,North,0,0.0,2.0,15,0.00,,,0.00,WSDL version 420,2013-04-13 20:50:00,
2013-04-13 16:52:00,79.0,27.4,28.76,ESE,113,1.5,2.0,15,0.00,,,0.00,WSDL version 420,2013-04-13 20:52:00,
2013-04-13 16:54:00,79.0,27.4,28.76,North,-999,-999.0,-999.0,15,0.00,,,0.00,WSDL version 420,2013-04-13 20:54:00,
2013-04-13 16:56:00,79.0,27.4,28.76,WSW,248,1.3,2.0,15,0.00,,,0.00,WSDL version 420,2013-04-13 20:56:00,
2013-04-13 17:00:00,78.7,27.2,28.76,North,360,1.3,2.0,15,0.00,,,0.00,WSDL version 420,2013-04-13 21:00:00,
2013-04-13 17:04:00,78.5,27.1,28.76,NNW,330,0.9,3.4,15,0.00,,,0.00,WSDL version 420,2013-04-13 21:04:00,
2013-04-13 17:06:00,78.4,26.9,28.79,North,360,2.5,3.4,15,0.00,,,0.00,WSDL version 420,2013-04-13 21:06:00,
2013-04-13 17:08:00,78.1,26.7,28.79,NNE,23,2.0,3.4,15,0.00,,,0.00,WSDL version 420,2013-04-13 21:08:00,
2013-04-13 17:10:00,78.0,26.6,28.79,North,-999,-999.0,-999.0,15,0.00,,,0.00,WSDL version 420,2013-04-13 21:10:00,
2013-04-13 17:12:00,78.0,26.7,28.79,North,-999,-999.0,-999.0,15,0.00,,,0.00,WSDL version 420,2013-04-13 21:12:00,
2013-04-13 17:14:00,78.0,26.7,28.79,NNE,23,1.3,2.7,15,0.00,,,0.00,WSDL version 420,2013-04-13 21:14:00,
2013-04-13 17:18:00,77.8,26.5,28.79,North,360,2.7,3.4,15,0.00,,,0.00,WSDL version 420,2013-04-13 21:18:00,
2013-04-13 17:20:00,77.6,26.3,28.79,NE,45,3.4,3.6,15,0.00,,,0.00,WSDL version 420,2013-04-13 21:20:00,
2013-04-13 17:22:00,77.4,26.1,28.79,WNW,293,2.7,3.6,15,0.00,,,0.00,WSDL version 420,2013-04-13 21:22:00,
2013-04-13 17:28:00,77.0,25.8,28.79,North,360,2.7,4.3,15,0.00,,,0.00,WSDL version 420,2013-04-13 21:28:00,
2013-04-13 17:32:00,76.7,25.6,28.79,North,360,2.6,4.3,15,0.00,,,0.00,WSDL version 420,2013-04-13 21:32:00,
2013-04-13 17:34:00,76.6,25.6,28.79,WSW,240,1.3,3.6,15,0.00,,,0.00,WSDL version 420,2013-04-13 21:34:00,
2013-04-13 17:38:00,76.8,25.7,28.79,North,-999,-999.0,-999.0,15,0.00,,,0.00,WSDL version 420,2013-04-13 21:38:00,
2013-04-13 17:40:00,76.8,25.7,28.79,NNE,23,2.0,2.9,15,0.00,,,0.00,WSDL version 420,2013-04-13 21:40:00,
2013-04-13 17:44:00,76.8,25.7,28.79,North,0,0.0,2.5,15,0.00,,,0.00,WSDL version 420,2013-04-13 21:44:00,
2013-04-13 17:46:00,76.7,25.6,28.79,East,83,0.7,2.5,15,0.00,,,0.00,WSDL version 420,2013-04-13 21:46:00,
2013-04-13 17:48:00,76.6,25.5,28.79,North,-999,-999.0,-999.0,15,0.00,,,0.00,WSDL version 420,2013-04-13 21:48:00,
2013-04-13 17:50:00,76.5,25.4,28.79,NW,315,2.2,2.9,15,0.00,,,0.00,WSDL version 420,2013-04-13 21:50:00,
2013-04-13 17:54:00,76.0,25.1,28.79,NNE,23,2.7,3.6,15,0.00,,,0.00,WSDL version 420,2013-04-13 21:54:00,
2013-04-13 17:56:00,75.9,25.0,28.79,NW,315,3.6,3.6,15,0.00,,,0.00,WSDL version 420,2013-04-13 21:56:00,
2013-04-13 18:00:00,75.7,24.8,28.79,North,349,2.3,3.6,15,0.00,,,0.00,WSDL version 420,2013-04-13 22:00:00,
2013-04-13 18:02:00,75.5,24.7,28.79,North,-999,-999.0,-999.0,15,0.00,,,0.00,WSDL version 420,2013-04-13 22:02:00,
2013-04-13 18:04:00,75.4,24.6,28.79,NW,315,2.5,2.5,15,0.00,,,0.00,WSDL version 420,2013-04-13 22:04:00,
2013-04-13 18:10:00,75.4,24.5,28.79,North,360,1.3,3.4,15,0.00,,,0.00,WSDL version 420,2013-04-13 22:10:00,
2013-04-13 18:14:00,75.1,25.2,28.79,North,360,4.7,5.8,16,0.00,,,0.00,WSDL version 420,2013-04-13 22:14:00,
2013-04-13 18:16:00,74.9,25.7,28.79,North,360,1.7,5.8,16,0.00,,,0.00,WSDL version 420,2013-04-13 22:16:00,
2013-04-13 18:18:00,74.8,25.7,28.79,NE,45,2.5,5.8,16,0.00,,,0.00,WSDL version 420,2013-04-13 22:18:00,
2013-04-13 18:24:00,74.6,25.5,28.79,NE,45,2.7,4.3,16,0.00,,,0.00,WSDL version 420,2013-04-13 22:24:00,
2013-04-13 18:28:00,74.5,25.4,28.79,NE,45,2.2,4.3,16,0.00,,,0.00,WSDL version 420,2013-04-13 22:28:00,
2013-04-13 18:30:00,74.5,25.4,28.79,North,-999,-999.0,-999.0,16,0.00,,,0.00,WSDL version 420,2013-04-13 22:30:00,
2013-04-13 18:34:00,74.5,25.4,28.79,West,270,1.3,2.5,16,0.00,,,0.00,WSDL version 420,2013-04-13 22:34:00,
2013-04-13 18:36:00,74.5,25.4,28.79,NW,315,0.0,2.5,16,0.00,,,0.00,WSDL version 420,2013-04-13 22:36:00,
2013-04-13 18:40:00,74.4,25.4,28.79,North,-999,-999.0,-999.0,16,0.00,,,0.00,WSDL version 420,2013-04-13 22:40:00,
2013-04-13 18:42:00,74.4,25.3,28.79,NNW,332,2.6,4.3,16,0.00,,,0.00,WSDL version 420,2013-04-13 22:42:00,
2013-04-13 18:44:00,74.4,25.3,28.79,SW,225,0.0,4.3,16,0.00,,,0.00,WSDL version 420,2013-04-13 22:44:00,
2013-04-13 18:46:00,74.3,25.2,28.79,North,0,0.0,4.3,16,0.00,,,0.00,WSDL version 420,2013-04-13 22:46:00,
2013-04-13 18:52:00,73.7,24.8,28.79,North,-999,-999.0,-999.0,16,0.00,,,0.00,WSDL version 420,2013-04-13 22:52:00,
2013-04-13 18:56:00,73.3,24.4,28.79,ENE,60,1.7,4.0,16,0.00,,,0.00,WSDL version 420,2013-04-13 22:56:00,
2013-04-13 18:58:00,73.2,24.3,28.79,North,11,3.8,4.7,16,0.00,,,0.00,WSDL version 420,2013-04-13 22:58:00,
2013-04-13 19:00:00,73.1,24.3,28.79,North,11,2.6,4.7,16,0.00,,,0.00,WSDL version 420,2013-04-13 23:00:00,
2013-04-13 19:02:00,73.0,24.2,28.79,North,360,1.1,4.7,16,0.00,,,0.00,WSDL version 420,2013-04-13 23:02:00,
2013-04-13 19:08:00,72.7,23.9,28.76,North,349,0.0,2.0,16,0.00,,,0.00,WSDL version 420,2013-04-13 23:08:00,
2013-04-13 19:10:00,72.5,23.8,28.76,NNW,330,0.7,2.5,16,0.00,,,0.00,WSDL version 420,2013-04-13 23:10:00,
2013-04-13 19:14:00,72.2,23.5,28.76,NNW,345,2.0,4.3,16,0.00,,,0.00,WSDL version 420,2013-04-13 23:14:00,
2013-04-13 19:18:00,72.1,23.4,28.76,NW,304,1.0,4.3,16,0.00,,,0.00,WSDL version 420,2013-04-13 23:18:00,
2013-04-13 19:20:00,72.0,23.4,28.76,North,360,0.0,4.3,16,0.00,,,0.00,WSDL version 420,2013-04-13 23:20:00,
2013-04-13 19:24:00,71.6,23.6,28.76,NE,45,0.9,3.1,17,0.00,,,0.00,WSDL version 420,2013-04-13 23:24:00,
2013-04-13 19:26:00,71.5,24.1,28.76,NNE,23,1.6,2.5,17,0.00,,,0.00,WSDL version 420,2013-04-13 23:26:00,
2013-04-13 19:28:00,71.3,24.3,28.76,NNE,23,1.9,2.5,17,0.00,,,0.00,WSDL version 420,2013-04-13 23:28:00,
2013-04-13 19:34:00,70.9,24.0,28.76,NW,315,1.7,2.7,17,0.00,,,0.00,WSDL version 420,2013-04-13 23:34:00,
2013-04-13 19:36:00,70.8,23.9,28.76,North,11,1.7,2.7,17,0.00,,,0.00,WSDL version 420,2013-04-13 23:36:00,
2013-04-13 19:38:00,70.7,23.8,28.76,North,360,2.0,4.9,17,0.00,,,0.00,WSDL version 420,2013-04-13 23:38:00,
2013-04-13 19:40:00,70.5,23.6,28.76,North,360,3.7,4.9,17,0.00,,,0.00,WSDL version 420,2013-04-13 23:40:00,
2013-04-13 19:44:00,70.5,23.6,28.76,North,360,1.9,4.9,17,0.00,,,0.00,WSDL version 420,2013-04-13 23:44:00,
2013-04-13 19:46:00,70.5,23.6,28.76,North,-999,-999.0,-999.0,17,0.00,,,0.00,WSDL version 420,2013-04-13 23:46:00,
2013-04-13 19:50:00,70.2,23.4,28.76,West,270,0.0,3.1,17,0.00,,,0.00,WSDL version 420,2013-04-13 23:50:00,
2013-04-13 19:52:00,70.1,23.3,28.79,North,0,0.0,2.0,17,0.00,,,0.00,WSDL version 420,2013-04-13 23:52:00,
2013-04-13 19:54:00,70.0,23.2,28.79,West,270,0.0,2.0,17,0.00,,,0.00,WSDL version 420,2013-04-13 23:54:00,
2013-04-13 19:56:00,69.9,23.1,28.79,West,270,0.0,2.0,17,0.00,,,0.00,WSDL version 420,2013-04-13 23:56:00,
2013-04-13 20:02:00,69.5,22.8,28.79,North,-999,-999.0,-999.0,17,0.00,,,0.00,WSDL version 420,2013-04-14 00:02:00,
2013-04-13 20:04:00,69.4,22.7,28.79,North,360,0.0,0.0,17,0.00,,,0.00,WSDL version 420,2013-04-14 00:04:00,
2013-04-13 20:08:00,69.0,22.4,28.79,WNW,293,0.0,0.0,17,0.00,,,0.00,WSDL version 420,2013-04-14 00:08:00,
2013-04-13 20:14:00,68.4,21.9,28.79,North,0,0.0,0.0,17,0.00,,,0.00,WSDL version 420,2013-04-14 00:14:00,
2013-04-13 20:18:00,68.2,21.7,28.79,North,360,0.0,0.0,17,0.00,,,0.00,WSDL version 420,2013-04-14 00:18:00,
2013-04-13 20:20:00,68.2,21.8,28.79,WNW,293,0.0,0.0,17,0.00,,,0.00,WSDL version 420,2013-04-14 00:20:00,
2013-04-13 20:28:00,68.2,21.7,28.79,West,270,0.0,0.0,17,0.00,,,0.00,WSDL version 420,2013-04-14 00:28:00,
2013-04-13 20:30:00,68.2,21.7,28.79,WSW,248,0.0,0.0,17,0.00,,,0.00,WSDL version 420,2013-04-14 00:30:00,
2013-04-13 20:32:00,68.1,21.6,28.79,SW,233,0.3,1.6,17,0.00,,,0.00,WSDL version 420,2013-04-14 00:32:00,
2013-04-13 20:34:00,68.0,21.6,28.79,WNW,293,0.0,1.6,17,0.00,,,0.00,WSDL version 420,2013-04-14 00:34:00,
2013-04-13 20:40:00,67.9,21.5,28.79,West,259,0.6,1.6,17,0.00,,,0.00,WSDL version 420,2013-04-14 00:40:00,
2013-04-13 20:42:00,67.8,21.4,28.79,WSW,248,0.0,1.1,17,0.00,,,0.00,WSDL version 420,2013-04-14 00:42:00,
2013-04-13 20:44:00,67.7,21.4,28.79,SSW,195,0.7,2.2,17,0.00,,,0.00,WSDL version 420,2013-04-14 00:44:00,
2013-04-13 20:46:00,67.6,21.3,28.79,East,90,0.0,2.2,17,0.00,,,0.00,WSDL version 420,2013-04-14 00:46:00,
2013-04-13 20:48:00,67.6,21.3,28.79,NW,304,0.0,2.2,17,0.00,,,0.00,WSDL version 420,2013-04-14 00:48:00,
2013-04-13 20:50:00,67.6,21.3,28.79,WSW,248,0.9,2.2,17,0.00,,,0.00,WSDL version 420,2013-04-14 00:50:00,
2013-04-13 20:56:00,67.6,21.2,28.79,SW,214,1.1,1.1,17,0.00,,,0.00,WSDL version 420,2013-04-14 00:56:00,
2013-04-13 20:58:00,67.5,21.2,28.79,WSW,255,0.0,0.9,17,0.00,,,0.00,WSDL version 420,2013-04-14 00:58:00,
2013-04-13 21:00:00,67.4,21.1,28.79,SW,225,0.0,1.3,17,0.00,,,0.00,WSDL version 420,2013-04-14 01:00:00,
2013-04-13 21:02:00,67.3,21.0,28.79,North,0,0.0,1.3,17,0.00,,,0.00,WSDL version 420,2013-04-14 01:02:00,
2013-04-13 21:04:00,67.3,21.0,28.79,SW,225,0.0,1.3,17,0.00,,,0.00,WSDL version 420,2013-04-14 01:04:00,
2013-04-13 21:08:00,67.2,20.9,28.82,SW,225,0.0,1.3,17,0.00,,,0.00,WSDL version 420,2013-04-14 01:08:00,
2013-04-13 21:10:00,67.1,20.9,28.82,South,180,0.0,0.9,17,0.00,,,0.00,WSDL version 420,2013-04-14 01:10:00,
2013-04-13 21:12:00,67.0,20.8,28.82,North,0,0.0,0.9,17,0.00,,,0.00,WSDL version 420,2013-04-14 01:12:00,
2013-04-13 21:16:00,66.9,20.7,28.82,SSW,194,0.2,0.9,17,0.00,,,0.00,WSDL version 420,2013-04-14 01:16:00,
2013-04-13 21:18:00,66.8,20.6,28.82,South,173,0.0,0.9,17,0.00,,,0.00,WSDL version 420,2013-04-14 01:18:00,
2013-04-13 21:22:00,66.6,20.4,28.82,ENE,62,0.0,0.9,17,0.00,,,0.00,WSDL version 420,2013-04-14 01:22:00,
2013-04-13 21:24:00,66.3,20.2,28.82,NE,56,0.6,1.1,17,0.00,,,0.00,WSDL version 420,2013-04-14 01:24:00,
2013-04-13 21:26:00,66.2,22.0,28.82,NE,56,0.0,1.1,20,0.00,,,0.00,WSDL version 420,2013-04-14 01:26:00,
2013-04-13 21:28:00,66.0,23.2,28.82,NE,39,0.0,1.3,20,0.00,,,0.00,WSDL version 420,2013-04-14 01:28:00,
2013-04-13 21:32:00,65.7,23.5,28.82,ENE,68,0.0,1.3,20,0.00,,,0.00,WSDL version 420,2013-04-14 01:32:00,
2013-04-13 21:34:00,65.5,23.4,28.82,East,98,0.0,1.3,20,0.00,,,0.00,WSDL version 420,2013-04-14 01:34:00,
2013-04-13 21:38:00,65.3,23.2,28.82,SSE,150,0.0,0.0,20,0.00,,,0.00,WSDL version 420,2013-04-14 01:38:00,
2013-04-13 21:42:00,65.1,23.1,28.82,NE,56,0.4,0.9,20,0.00,,,0.00,WSDL version 420,2013-04-14 01:42:00,
2013-04-13 21:44:00,65.1,23.1,28.82,South,180,0.0,0.9,20,0.00,,,0.00,WSDL version 420,2013-04-14 01:44:00,
2013-04-13 21:46:00,65.2,23.1,28.82,South,180,0.0,0.9,20,0.00,,,0.00,WSDL version 420,2013-04-14 01:46:00,
2013-04-13 21:48:00,65.2,23.1,28.82,SE,141,1.0,1.6,20,0.00,,,0.00,WSDL version 420,2013-04-14 01:48:00,
2013-04-13 21:54:00,65.1,23.1,28.82,East,96,0.8,2.0,20,0.00,,,0.00,WSDL version 420,2013-04-14 01:54:00,
2013-04-13 21:58:00,65.0,23.0,28.82,SSE,158,1.2,2.0,20,0.00,,,0.00,WSDL version 420,2013-04-14 01:58:00,
2013-04-13 22:02:00,64.9,22.9,28.82,South,180,2.1,2.7,20,0.00,,,0.00,WSDL version 420,2013-04-14 02:02:00,
2013-04-13 22:06:00,64.7,22.7,28.82,South,180,2.9,2.9,20,0.00,,,0.00,WSDL version 420,2013-04-14 02:06:00,
2013-04-13 22:08:00,64.6,22.6,28.82,SE,135,1.4,3.4,20,0.00,,,0.00,WSDL version 420,2013-04-14 02:08:00,
2013-04-13 22:12:00,64.4,22.5,28.82,South,173,0.0,3.4,20,0.00,,,0.00,WSDL version 420,2013-04-14 02:12:00,
2013-04-13 22:18:00,64.3,23.3,28.82,East,83,1.0,2.0,21,0.00,,,0.00,WSDL version 420,2013-04-14 02:18:00,
2013-04-13 22:20:00,64.2,23.5,28.82,East,90,0.9,2.0,21,0.00,,,0.00,WSDL version 420,2013-04-14 02:20:00,
2013-04-13 22:24:00,64.1,23.4,28.82,SE,128,0.6,2.0,21,0.00,,,0.00,WSDL version 420,2013-04-14 02:24:00,
2013-04-13 22:30:00,64.1,23.4,28.82,SSW,195,0.6,1.3,21,0.00,,,0.00,WSDL version 420,2013-04-14 02:30:00,
2013-04-13 22:36:00,64.0,23.3,28.82,NE,45,0.9,1.3,21,0.00,,,0.00,WSDL version 420,2013-04-14 02:36:00,
2013-04-13 22:38:00,64.0,23.3,28.82,SE,146,0.0,1.3,21,0.00,,,0.00,WSDL version 420,2013-04-14 02:38:00,
2013-04-13 22:42:00,64.0,23.3,28.82,North,0,0.0,0.9,21,0.00,,,0.00,WSDL version 420,2013-04-14 02:42:00,
2013-04-13 22:44:00,63.9,23.2,28.82,East,94,0.2,0.9,21,0.00,,,0.00,WSDL version 420,2013-04-14 02:44:00,
2013-04-13 22:48:00,63.8,23.1,28.82,North,-999,-999.0,-999.0,21,0.00,,,0.00,WSDL version 420,2013-04-14 02:48:00,
2013-04-13 22:54:00,63.5,22.9,28.82,South,191,0.8,0.0,21,0.00,,,0.00,WSDL version 420,2013-04-14 02:54:00,
2013-04-13 22:58:00,63.4,23.5,28.82,East,90,0.0,0.0,23,0.00,,,0.00,WSDL version 420,2013-04-14 02:58:00,
2013-04-13 23:00:00,63.4,23.5,28.82,East,90,1.3,0.0,21,0.00,,,0.00,WSDL version 420,2013-04-14 03:00:00,
2013-04-13 23:06:00,63.2,24.8,28.82,South,180,0.0,1.1,23,0.00,,,0.00,WSDL version 420,2013-04-14 03:06:00,
2013-04-13 23:12:00,62.8,24.5,28.82,South,180,0.0,2.5,23,0.00,,,0.00,WSDL version 420,2013-04-14 03:12:00,
2013-04-13 23:14:00,62.7,24.4,28.82,South,180,0.0,2.5,23,0.00,,,0.00,WSDL version 420,2013-04-14 03:14:00,
2013-04-13 23:16:00,62.5,24.6,28.82,East,90,0.0,2.5,24,0.00,,,0.00,WSDL version 420,2013-04-14 03:16:00,
2013-04-13 23:20:00,62.2,25.0,28.82,South,180,0.0,2.5,24,0.00,,,0.00,WSDL version 420,2013-04-14 03:20:00,
2013-04-13 23:26:00,61.8,24.7,28.85,South,180,0.9,2.2,24,0.00,,,0.00,WSDL version 420,2013-04-14 03:26:00,
2013-04-13 23:30:00,61.5,24.4,28.85,South,180,1.8,2.7,24,0.00,,,0.00,WSDL version 420,2013-04-14 03:30:00,
2013-04-13 23:34:00,61.2,24.1,28.85,South,180,0.0,2.7,24,0.00,,,0.00,WSDL version 420,2013-04-14 03:34:00,
2013-04-13 23:37:00,60.9,24.3,28.82,South,180,0.0,2.2,25,0.00,,,0.00,WSDL version 420,2013-04-14 03:37:00,
2013-04-13 23:41:00,60.5,24.6,28.82,South,180,0.0,2.0,25,0.00,,,0.00,WSDL version 420,2013-04-14 03:41:00,
2013-04-13 23:43:00,60.4,24.4,28.82,South,191,0.0,2.0,25,0.00,,,0.00,WSDL version 420,2013-04-14 03:43:00,
2013-04-13 23:47:00,60.1,24.2,28.82,SSW,203,0.0,0.9,25,0.00,,,0.00,WSDL version 420,2013-04-14 03:47:00,
2013-04-13 23:49:00,59.9,24.0,28.82,SW,215,0.0,0.0,25,0.00,,,0.00,WSDL version 420,2013-04-14 03:49:00,
2013-04-13 23:51:00,59.8,24.2,28.85,SW,225,0.0,0.0,26,0.00,,,0.00,WSDL version 420,2013-04-14 03:51:00,
2013-04-13 23:53:00,59.6,24.4,28.85,SW,225,0.0,0.0,26,0.00,,,0.00,WSDL version 420,2013-04-14 03:53:00,
2013-04-13 23:57:00,59.4,24.6,28.85,SW,225,0.0,0.0,26,0.00,,,0.00,WSDL version 420,2013-04-14 03:57:00,